<?xml version="1.0" encoding="UTF-8" standalone="no" ?>
<gpx xmlns="http://www.topografix.com/GPX/1/1" xmlns:xsi="http://www.w3.org/2001/XMLSchema-instance" xsi:schemaLocation="http://www.topografix.com/GPX/1/1 http://www.topografix.com/GPX/1/1/gpx.xsd" version="1.1" creator="VisuGPX - https://www.visugpx.com">
  <metadata>
    <name>11214582-Jonction 10 et 6</name>
  </metadata>
  <trk>
    <name><![CDATA[11214582-Jonction 10 et 6]]></name>
    <trkseg>
      <trkpt lat="44.72326" lon="3.56526">
        <ele>1460</ele>
        <time>2020-04-19T09:20:32Z</time>
      </trkpt>
      <trkpt lat="44.72123" lon="3.56489">
        <ele>1467</ele>
        <time>2020-04-19T09:21:20Z</time>
      </trkpt>
      <trkpt lat="44.71907" lon="3.56476">
        <ele>1467</ele>
        <time>2020-04-19T09:22:10Z</time>
      </trkpt>
      <trkpt lat="44.71655" lon="3.56305">
        <ele>1473</ele>
        <time>2020-04-19T09:23:16Z</time>
      </trkpt>
      <trkpt lat="44.7164" lon="3.56307">
        <ele>1473</ele>
        <time>2020-04-19T09:23:19Z</time>
      </trkpt>
      <trkpt lat="44.71583" lon="3.56249">
        <ele>1476</ele>
        <time>2020-04-19T09:23:36Z</time>
      </trkpt>
      <trkpt lat="44.71519" lon="3.56195">
        <ele>1475</ele>
        <time>2020-04-19T09:23:53Z</time>
      </trkpt>
      <trkpt lat="44.71435" lon="3.56118">
        <ele>1477</ele>
        <time>2020-04-19T09:24:16Z</time>
      </trkpt>
      <trkpt lat="44.71192" lon="3.55875">
        <ele>1486</ele>
        <time>2020-04-19T09:25:26Z</time>
      </trkpt>
      <trkpt lat="44.70923" lon="3.55867">
        <ele>1475</ele>
        <time>2020-04-19T09:26:29Z</time>
      </trkpt>
      <trkpt lat="44.70845" lon="3.5583">
        <ele>1479</ele>
        <time>2020-04-19T09:26:48Z</time>
      </trkpt>
      <trkpt lat="44.70615" lon="3.55866">
        <ele>1482</ele>
        <time>2020-04-19T09:27:42Z</time>
      </trkpt>
      <trkpt lat="44.70502" lon="3.55896">
        <ele>1483</ele>
        <time>2020-04-19T09:28:09Z</time>
      </trkpt>
      <trkpt lat="44.7038" lon="3.55978">
        <ele>1481</ele>
        <time>2020-04-19T09:28:41Z</time>
      </trkpt>
      <trkpt lat="44.70133" lon="3.56171">
        <ele>1473</ele>
        <time>2020-04-19T09:29:47Z</time>
      </trkpt>
      <trkpt lat="44.701" lon="3.56308">
        <ele>1467</ele>
        <time>2020-04-19T09:30:11Z</time>
      </trkpt>
      <trkpt lat="44.70036" lon="3.56437">
        <ele>1470</ele>
        <time>2020-04-19T09:30:37Z</time>
      </trkpt>
      <trkpt lat="44.69941" lon="3.56656">
        <ele>1465</ele>
        <time>2020-04-19T09:31:19Z</time>
      </trkpt>
      <trkpt lat="44.69865" lon="3.56789">
        <ele>1462</ele>
        <time>2020-04-19T09:31:48Z</time>
      </trkpt>
      <trkpt lat="44.69798" lon="3.56845">
        <ele>1460</ele>
        <time>2020-04-19T09:32:06Z</time>
      </trkpt>
      <trkpt lat="44.69679" lon="3.57042">
        <ele>1455</ele>
        <time>2020-04-19T09:32:49Z</time>
      </trkpt>
      <trkpt lat="44.69566" lon="3.57231">
        <ele>1450</ele>
        <time>2020-04-19T09:33:30Z</time>
      </trkpt>
      <trkpt lat="44.69432" lon="3.57471">
        <ele>1447</ele>
        <time>2020-04-19T09:34:20Z</time>
      </trkpt>
      <trkpt lat="44.69288" lon="3.5769">
        <ele>1441</ele>
        <time>2020-04-19T09:35:10Z</time>
      </trkpt>
      <trkpt lat="44.69273" lon="3.57693">
        <ele>1441</ele>
        <time>2020-04-19T09:35:13Z</time>
      </trkpt>
      <trkpt lat="44.69166" lon="3.57887">
        <ele>1440</ele>
        <time>2020-04-19T09:35:54Z</time>
      </trkpt>
      <trkpt lat="44.69068" lon="3.58038">
        <ele>1436</ele>
        <time>2020-04-19T09:36:28Z</time>
      </trkpt>
      <trkpt lat="44.69038" lon="3.58128">
        <ele>1431</ele>
        <time>2020-04-19T09:36:45Z</time>
      </trkpt>
      <trkpt lat="44.68998" lon="3.58377">
        <ele>1428</ele>
        <time>2020-04-19T09:37:27Z</time>
      </trkpt>
      <trkpt lat="44.68959" lon="3.58573">
        <ele>1422</ele>
        <time>2020-04-19T09:38:01Z</time>
      </trkpt>
      <trkpt lat="44.68879" lon="3.58806">
        <ele>1417</ele>
        <time>2020-04-19T09:38:44Z</time>
      </trkpt>
      <trkpt lat="44.68834" lon="3.5887">
        <ele>1415</ele>
        <time>2020-04-19T09:38:59Z</time>
      </trkpt>
      <trkpt lat="44.68754" lon="3.58995">
        <ele>1407</ele>
        <time>2020-04-19T09:39:27Z</time>
      </trkpt>
      <trkpt lat="44.68724" lon="3.59046">
        <ele>1404</ele>
        <time>2020-04-19T09:39:38Z</time>
      </trkpt>
      <trkpt lat="44.68696" lon="3.59152">
        <ele>1401</ele>
        <time>2020-04-19T09:39:56Z</time>
      </trkpt>
      <trkpt lat="44.68667" lon="3.59292">
        <ele>1399</ele>
        <time>2020-04-19T09:40:21Z</time>
      </trkpt>
      <trkpt lat="44.6862" lon="3.59424">
        <ele>1397</ele>
        <time>2020-04-19T09:40:45Z</time>
      </trkpt>
      <trkpt lat="44.68544" lon="3.59488">
        <ele>1396</ele>
        <time>2020-04-19T09:41:06Z</time>
      </trkpt>
      <trkpt lat="44.68434" lon="3.59402">
        <ele>1398</ele>
        <time>2020-04-19T09:41:35Z</time>
      </trkpt>
      <trkpt lat="44.68306" lon="3.59231">
        <ele>1398</ele>
        <time>2020-04-19T09:42:16Z</time>
      </trkpt>
      <trkpt lat="44.68178" lon="3.59029">
        <ele>1396</ele>
        <time>2020-04-19T09:43:01Z</time>
      </trkpt>
      <trkpt lat="44.68147" lon="3.58939">
        <ele>1390</ele>
        <time>2020-04-19T09:43:18Z</time>
      </trkpt>
      <trkpt lat="44.68107" lon="3.58913">
        <ele>1386</ele>
        <time>2020-04-19T09:43:28Z</time>
      </trkpt>
      <trkpt lat="44.68034" lon="3.5887">
        <ele>1379</ele>
        <time>2020-04-19T09:43:47Z</time>
      </trkpt>
      <trkpt lat="44.67982" lon="3.58857">
        <ele>1375</ele>
        <time>2020-04-19T09:43:59Z</time>
      </trkpt>
      <trkpt lat="44.67967" lon="3.58837">
        <ele>1371</ele>
        <time>2020-04-19T09:44:04Z</time>
      </trkpt>
      <trkpt lat="44.67882" lon="3.58793">
        <ele>1362</ele>
        <time>2020-04-19T09:44:25Z</time>
      </trkpt>
      <trkpt lat="44.67811" lon="3.58724">
        <ele>1353</ele>
        <time>2020-04-19T09:44:45Z</time>
      </trkpt>
      <trkpt lat="44.67796" lon="3.586">
        <ele>1345</ele>
        <time>2020-04-19T09:45:06Z</time>
      </trkpt>
      <trkpt lat="44.67738" lon="3.58467">
        <ele>1334</ele>
        <time>2020-04-19T09:45:32Z</time>
      </trkpt>
      <trkpt lat="44.67695" lon="3.58385">
        <ele>1330</ele>
        <time>2020-04-19T09:45:49Z</time>
      </trkpt>
      <trkpt lat="44.67663" lon="3.58369">
        <ele>1332</ele>
        <time>2020-04-19T09:45:57Z</time>
      </trkpt>
      <trkpt lat="44.67616" lon="3.58359">
        <ele>1334</ele>
        <time>2020-04-19T09:46:08Z</time>
      </trkpt>
      <trkpt lat="44.67543" lon="3.58334">
        <ele>1340</ele>
        <time>2020-04-19T09:46:25Z</time>
      </trkpt>
      <trkpt lat="44.67467" lon="3.58269">
        <ele>1346</ele>
        <time>2020-04-19T09:46:46Z</time>
      </trkpt>
      <trkpt lat="44.67357" lon="3.58532">
        <ele>1342</ele>
        <time>2020-04-19T09:47:37Z</time>
      </trkpt>
      <trkpt lat="44.67195" lon="3.58922">
        <ele>1333</ele>
        <time>2020-04-19T09:48:52Z</time>
      </trkpt>
      <trkpt lat="44.67192" lon="3.59205">
        <ele>1329</ele>
        <time>2020-04-19T09:49:39Z</time>
      </trkpt>
      <trkpt lat="44.67174" lon="3.59304">
        <ele>1334</ele>
        <time>2020-04-19T09:49:56Z</time>
      </trkpt>
      <trkpt lat="44.67178" lon="3.59403">
        <ele>1337</ele>
        <time>2020-04-19T09:50:12Z</time>
      </trkpt>
      <trkpt lat="44.67146" lon="3.5954">
        <ele>1339</ele>
        <time>2020-04-19T09:50:36Z</time>
      </trkpt>
      <trkpt lat="44.67152" lon="3.59565">
        <ele>1338</ele>
        <time>2020-04-19T09:50:41Z</time>
      </trkpt>
      <trkpt lat="44.67122" lon="3.59618">
        <ele>1336</ele>
        <time>2020-04-19T09:50:52Z</time>
      </trkpt>
      <trkpt lat="44.67056" lon="3.59746">
        <ele>1327</ele>
        <time>2020-04-19T09:51:18Z</time>
      </trkpt>
      <trkpt lat="44.66993" lon="3.59866">
        <ele>1319</ele>
        <time>2020-04-19T09:51:43Z</time>
      </trkpt>
      <trkpt lat="44.66908" lon="3.60042">
        <ele>1302</ele>
        <time>2020-04-19T09:52:18Z</time>
      </trkpt>
      <trkpt lat="44.66865" lon="3.59977">
        <ele>1301</ele>
        <time>2020-04-19T09:52:33Z</time>
      </trkpt>
      <trkpt lat="44.66844" lon="3.5975">
        <ele>1291</ele>
        <time>2020-04-19T09:53:11Z</time>
      </trkpt>
      <trkpt lat="44.66798" lon="3.59681">
        <ele>1281</ele>
        <time>2020-04-19T09:53:27Z</time>
      </trkpt>
      <trkpt lat="44.66771" lon="3.59647">
        <ele>1276</ele>
        <time>2020-04-19T09:53:35Z</time>
      </trkpt>
      <trkpt lat="44.66774" lon="3.59518">
        <ele>1277</ele>
        <time>2020-04-19T09:53:57Z</time>
      </trkpt>
      <trkpt lat="44.66746" lon="3.59454">
        <ele>1275</ele>
        <time>2020-04-19T09:54:09Z</time>
      </trkpt>
      <trkpt lat="44.66737" lon="3.59402">
        <ele>1275</ele>
        <time>2020-04-19T09:54:18Z</time>
      </trkpt>
      <trkpt lat="44.66774" lon="3.59291">
        <ele>1279</ele>
        <time>2020-04-19T09:54:38Z</time>
      </trkpt>
      <trkpt lat="44.66697" lon="3.59251">
        <ele>1290</ele>
        <time>2020-04-19T09:54:58Z</time>
      </trkpt>
      <trkpt lat="44.667" lon="3.58986">
        <ele>1314</ele>
        <time>2020-04-19T09:55:42Z</time>
      </trkpt>
      <trkpt lat="44.66722" lon="3.58909">
        <ele>1313</ele>
        <time>2020-04-19T09:55:55Z</time>
      </trkpt>
      <trkpt lat="44.66713" lon="3.58875">
        <ele>1319</ele>
        <time>2020-04-19T09:56:01Z</time>
      </trkpt>
      <trkpt lat="44.66707" lon="3.58574">
        <ele>1345</ele>
        <time>2020-04-19T09:56:51Z</time>
      </trkpt>
      <trkpt lat="44.66597" lon="3.58458">
        <ele>1367</ele>
        <time>2020-04-19T09:57:24Z</time>
      </trkpt>
      <trkpt lat="44.66505" lon="3.58307">
        <ele>1369</ele>
        <time>2020-04-19T09:57:57Z</time>
      </trkpt>
      <trkpt lat="44.66295" lon="3.58355">
        <ele>1383</ele>
        <time>2020-04-19T09:58:46Z</time>
      </trkpt>
      <trkpt lat="44.66258" lon="3.58179">
        <ele>1387</ele>
        <time>2020-04-19T09:59:17Z</time>
      </trkpt>
      <trkpt lat="44.66197" lon="3.5809">
        <ele>1395</ele>
        <time>2020-04-19T09:59:37Z</time>
      </trkpt>
      <trkpt lat="44.66105" lon="3.5799">
        <ele>1399</ele>
        <time>2020-04-19T10:00:04Z</time>
      </trkpt>
      <trkpt lat="44.65972" lon="3.57916">
        <ele>1406</ele>
        <time>2020-04-19T10:00:38Z</time>
      </trkpt>
      <trkpt lat="44.6591" lon="3.5777">
        <ele>1408</ele>
        <time>2020-04-19T10:01:06Z</time>
      </trkpt>
      <trkpt lat="44.65843" lon="3.57647">
        <ele>1409</ele>
        <time>2020-04-19T10:01:32Z</time>
      </trkpt>
      <trkpt lat="44.65742" lon="3.576">
        <ele>1413</ele>
        <time>2020-04-19T10:01:57Z</time>
      </trkpt>
      <trkpt lat="44.65763" lon="3.57446">
        <ele>1416</ele>
        <time>2020-04-19T10:02:23Z</time>
      </trkpt>
      <trkpt lat="44.65765" lon="3.57272">
        <ele>1418</ele>
        <time>2020-04-19T10:02:52Z</time>
      </trkpt>
      <trkpt lat="44.65834" lon="3.57102">
        <ele>1420</ele>
        <time>2020-04-19T10:03:24Z</time>
      </trkpt>
      <trkpt lat="44.65876" lon="3.56969">
        <ele>1417</ele>
        <time>2020-04-19T10:03:48Z</time>
      </trkpt>
      <trkpt lat="44.65956" lon="3.56883">
        <ele>1412</ele>
        <time>2020-04-19T10:04:12Z</time>
      </trkpt>
      <trkpt lat="44.66024" lon="3.56794">
        <ele>1405</ele>
        <time>2020-04-19T10:04:34Z</time>
      </trkpt>
      <trkpt lat="44.66041" lon="3.56665">
        <ele>1403</ele>
        <time>2020-04-19T10:04:55Z</time>
      </trkpt>
      <trkpt lat="44.66145" lon="3.56611">
        <ele>1416</ele>
        <time>2020-04-19T10:05:21Z</time>
      </trkpt>
      <trkpt lat="44.66133" lon="3.56587">
        <ele>1417</ele>
        <time>2020-04-19T10:05:26Z</time>
      </trkpt>
      <trkpt lat="44.66072" lon="3.56497">
        <ele>1418</ele>
        <time>2020-04-19T10:05:47Z</time>
      </trkpt>
      <trkpt lat="44.66191" lon="3.56608">
        <ele>1424</ele>
        <time>2020-04-19T10:06:20Z</time>
      </trkpt>
      <trkpt lat="44.66266" lon="3.56639">
        <ele>1427</ele>
        <time>2020-04-19T10:06:38Z</time>
      </trkpt>
      <trkpt lat="44.66398" lon="3.5657">
        <ele>1438</ele>
        <time>2020-04-19T10:07:11Z</time>
      </trkpt>
      <trkpt lat="44.66498" lon="3.56512">
        <ele>1447</ele>
        <time>2020-04-19T10:07:36Z</time>
      </trkpt>
      <trkpt lat="44.66574" lon="3.56467">
        <ele>1452</ele>
        <time>2020-04-19T10:07:56Z</time>
      </trkpt>
      <trkpt lat="44.66621" lon="3.56388">
        <ele>1452</ele>
        <time>2020-04-19T10:08:13Z</time>
      </trkpt>
      <trkpt lat="44.66606" lon="3.56242">
        <ele>1458</ele>
        <time>2020-04-19T10:08:37Z</time>
      </trkpt>
      <trkpt lat="44.66597" lon="3.56152">
        <ele>1461</ele>
        <time>2020-04-19T10:08:52Z</time>
      </trkpt>
      <trkpt lat="44.66568" lon="3.56126">
        <ele>1465</ele>
        <time>2020-04-19T10:09:00Z</time>
      </trkpt>
      <trkpt lat="44.66441" lon="3.56118">
        <ele>1473</ele>
        <time>2020-04-19T10:09:30Z</time>
      </trkpt>
      <trkpt lat="44.66424" lon="3.56098">
        <ele>1475</ele>
        <time>2020-04-19T10:09:35Z</time>
      </trkpt>
      <trkpt lat="44.6642" lon="3.5606">
        <ele>1477</ele>
        <time>2020-04-19T10:09:42Z</time>
      </trkpt>
      <trkpt lat="44.66443" lon="3.55939">
        <ele>1480</ele>
        <time>2020-04-19T10:10:03Z</time>
      </trkpt>
      <trkpt lat="44.66462" lon="3.55847">
        <ele>1482</ele>
        <time>2020-04-19T10:10:18Z</time>
      </trkpt>
      <trkpt lat="44.66465" lon="3.55763">
        <ele>1482</ele>
        <time>2020-04-19T10:10:32Z</time>
      </trkpt>
      <trkpt lat="44.66449" lon="3.55693">
        <ele>1484</ele>
        <time>2020-04-19T10:10:45Z</time>
      </trkpt>
      <trkpt lat="44.66429" lon="3.55639">
        <ele>1485</ele>
        <time>2020-04-19T10:10:55Z</time>
      </trkpt>
      <trkpt lat="44.66409" lon="3.55575">
        <ele>1486</ele>
        <time>2020-04-19T10:11:06Z</time>
      </trkpt>
      <trkpt lat="44.66404" lon="3.55476">
        <ele>1485</ele>
        <time>2020-04-19T10:11:23Z</time>
      </trkpt>
      <trkpt lat="44.66395" lon="3.55418">
        <ele>1485</ele>
        <time>2020-04-19T10:11:33Z</time>
      </trkpt>
      <trkpt lat="44.66383" lon="3.55336">
        <ele>1486</ele>
        <time>2020-04-19T10:11:47Z</time>
      </trkpt>
      <trkpt lat="44.66375" lon="3.55201">
        <ele>1488</ele>
        <time>2020-04-19T10:12:09Z</time>
      </trkpt>
      <trkpt lat="44.6638" lon="3.55169">
        <ele>1487</ele>
        <time>2020-04-19T10:12:15Z</time>
      </trkpt>
      <trkpt lat="44.66467" lon="3.5503">
        <ele>1485</ele>
        <time>2020-04-19T10:12:45Z</time>
      </trkpt>
      <trkpt lat="44.66514" lon="3.54957">
        <ele>1483</ele>
        <time>2020-04-19T10:13:02Z</time>
      </trkpt>
      <trkpt lat="44.66543" lon="3.54897">
        <ele>1481</ele>
        <time>2020-04-19T10:13:14Z</time>
      </trkpt>
      <trkpt lat="44.66566" lon="3.54841">
        <ele>1478</ele>
        <time>2020-04-19T10:13:24Z</time>
      </trkpt>
      <trkpt lat="44.66578" lon="3.54781">
        <ele>1471</ele>
        <time>2020-04-19T10:13:35Z</time>
      </trkpt>
      <trkpt lat="44.66633" lon="3.54757">
        <ele>1462</ele>
        <time>2020-04-19T10:13:48Z</time>
      </trkpt>
      <trkpt lat="44.66664" lon="3.54806">
        <ele>1462</ele>
        <time>2020-04-19T10:13:59Z</time>
      </trkpt>
      <trkpt lat="44.66717" lon="3.54798">
        <ele>1457</ele>
        <time>2020-04-19T10:14:12Z</time>
      </trkpt>
      <trkpt lat="44.66751" lon="3.54701">
        <ele>1448</ele>
        <time>2020-04-19T10:14:30Z</time>
      </trkpt>
      <trkpt lat="44.66716" lon="3.54652">
        <ele>1448</ele>
        <time>2020-04-19T10:14:41Z</time>
      </trkpt>
      <trkpt lat="44.66691" lon="3.54592">
        <ele>1447</ele>
        <time>2020-04-19T10:14:53Z</time>
      </trkpt>
      <trkpt lat="44.66656" lon="3.54523">
        <ele>1449</ele>
        <time>2020-04-19T10:15:07Z</time>
      </trkpt>
      <trkpt lat="44.66658" lon="3.5448">
        <ele>1450</ele>
        <time>2020-04-19T10:15:14Z</time>
      </trkpt>
      <trkpt lat="44.66726" lon="3.54463">
        <ele>1448</ele>
        <time>2020-04-19T10:15:30Z</time>
      </trkpt>
      <trkpt lat="44.66784" lon="3.54435">
        <ele>1449</ele>
        <time>2020-04-19T10:15:44Z</time>
      </trkpt>
      <trkpt lat="44.66791" lon="3.54388">
        <ele>1452</ele>
        <time>2020-04-19T10:15:52Z</time>
      </trkpt>
      <trkpt lat="44.66794" lon="3.54294">
        <ele>1453</ele>
        <time>2020-04-19T10:16:08Z</time>
      </trkpt>
      <trkpt lat="44.66676" lon="3.5433">
        <ele>1459</ele>
        <time>2020-04-19T10:16:36Z</time>
      </trkpt>
      <trkpt lat="44.66545" lon="3.54272">
        <ele>1461</ele>
        <time>2020-04-19T10:17:08Z</time>
      </trkpt>
      <trkpt lat="44.6644" lon="3.54184">
        <ele>1467</ele>
        <time>2020-04-19T10:17:37Z</time>
      </trkpt>
      <trkpt lat="44.66365" lon="3.54113">
        <ele>1476</ele>
        <time>2020-04-19T10:17:58Z</time>
      </trkpt>
      <trkpt lat="44.66278" lon="3.54058">
        <ele>1490</ele>
        <time>2020-04-19T10:18:20Z</time>
      </trkpt>
      <trkpt lat="44.66183" lon="3.53998">
        <ele>1504</ele>
        <time>2020-04-19T10:18:44Z</time>
      </trkpt>
      <trkpt lat="44.66082" lon="3.53955">
        <ele>1513</ele>
        <time>2020-04-19T10:19:09Z</time>
      </trkpt>
      <trkpt lat="44.65951" lon="3.53912">
        <ele>1518</ele>
        <time>2020-04-19T10:19:40Z</time>
      </trkpt>
    </trkseg>
  </trk>
</gpx>